Terminal Aerodrome Forecast
Issued by NWS Wilmington, OH

Current Version | Previous Version | Graphics & Text | Print | Product List | Glossary On
Versions: 1 2 3 4 5 6 7 8 9 10 11 12 13 14 15 16 17 18 19 20 21 22 23 24
510
FTUS41 KILN 221120
TAFCVG
TAF
KCVG 221120Z 2212/2318 32008KT P6SM FEW040
     FM221500 33008KT P6SM FEW050 SCT250
     FM222300 VRB04KT P6SM SCT250
     FM231500 20006KT P6SM BKN120=

USA.gov is the U.S. government's official web portal to all federal, state and local government web resources and services.